This is the latest recevied weather packets stored in our database for station/object W6UA-13. If no packets are shown the sender has not sent any weather packets the latest 10 day(s).
| Time | Temp. | Humidity | Pressure | Rain* | Wind** | Luminosity | Snow |
|---|---|---|---|---|---|---|---|
| 1778036679 | 13.89° C | 77% | 1015.9 hPa | 0 mm | - | 0 W/m² | - |
| 1778035779 | 13.89° C | 75% | 1015.9 hPa | 0 mm | - | 5 W/m² | - |
| 1778034879 | 14.44° C | 73% | 1015.9 hPa | 0 mm | - | 11 W/m² | - |
| 1778033979 | 15° C | 71% | 1015.9 hPa | 0 mm | - | 19 W/m² | - |
| 1778033079 | 15.56° C | 68% | 1015.9 hPa | 0 mm | - | 72 W/m² | - |
| 1778032179 | 16.11° C | 64% | 1015.9 hPa | 0 mm | - | 83 W/m² | - |
| 1778031279 | 17.22° C | 61% | 1016 hPa | 0 mm | - | 199 W/m² | - |
| 1778030689 | 17.22° C | 62% | 1016.2 hPa | 0 mm | - | 234 W/m² | - |
| 1778030653 | 17.22° C | 62% | 1016.2 hPa | 0 mm | - | 234 W/m² | - |
| 1778030379 | 17.22° C | 62% | 1016.2 hPa | 0 mm | - | 234 W/m² | - |
| 1778029479 | 17.78° C | 61% | 1016.3 hPa | 0 mm | - | 246 W/m² | - |
| 1778028579 | 17.78° C | 60% | 1016.3 hPa | 0 mm | - | 200 W/m² | - |
| 1778027679 | 18.33° C | 57% | 1015.9 hPa | 0 mm | - | 323 W/m² | - |
| 1778026779 | 18.33° C | 59% | 1015.8 hPa | 0 mm | - | 88 W/m² | - |
| 1778025879 | 18.89° C | 58% | 1015.7 hPa | 0 mm | - | 65 W/m² | - |
| 1778024979 | 18.89° C | 58% | 1015.5 hPa | 0 mm | - | 135 W/m² | - |
| 1778024079 | 18.89° C | 61% | 1015.6 hPa | 0 mm | - | 193 W/m² | - |
| 1778023180 | 17.22° C | 66% | 1015.6 hPa | 0 mm | - | 376 W/m² | - |
| 1778022280 | 17.22° C | 66% | 1015.7 hPa | 0 mm | - | 271 W/m² | - |
| 1778021380 | 18.33° C | 62% | 1015.9 hPa | 0 mm | - | 432 W/m² | - |
| 1778020480 | 18.89° C | 61% | 1015.9 hPa | 0 mm | - | 410 W/m² | - |
| 1778019580 | 18.89° C | 60% | 1015.9 hPa | 0 mm | - | 399 W/m² | - |
| 1778018680 | 19.44° C | 56% | 1015.9 hPa | 0 mm | - | 854 W/m² | - |
| 1778017780 | 18.33° C | 57% | 1016 hPa | 0 mm | - | 383 W/m² | - |
| 1778016880 | 17.22° C | 65% | 1016.2 hPa | 0 mm | - | 872 W/m² | - |
* Rain latest hour (hover to see other rain measurements)
** Current wind speed in m/s (hover to see current wind gust speed)